Time;durP1;ratioP1;P1;durP2;ratioP2;P2;SDS_P1;SDS_P2;PMS_P1;PMS_P2;Temp;Humidity;BMP_temperature;BMP_pressure;BME280_temperature;BME280_humidity;BME280_pressure;Samples;Min_cycle;Max_cycle;Signal;HPM_P1;HPM_P2
2023/01/27 00:02:03;;;;;;;;;;;18.40;44.80;;;;;;5065203;28;20372;-73
2023/01/27 00:04:29;;;;;;;;;;;18.40;44.70;;;;;;5068938;28;20011;-73
2023/01/27 00:06:54;;;;;;;;;;;18.40;44.80;;;;;;5073451;28;19925;-73
2023/01/27 00:09:20;;;;;;;;;;;18.40;44.80;;;;;;5072452;28;19970;-73
2023/01/27 00:14:29;;;;;;;;;;;18.30;44.80;;;;;;5057108;28;19919;-73
2023/01/27 00:16:55;;;;;;;;;;;18.30;44.80;;;;;;5071445;28;19916;-73
2023/01/27 00:19:20;;;;;;;;;;;18.30;44.90;;;;;;5071013;28;19964;-73
2023/01/27 00:24:36;;;;;;;;;;;18.20;44.80;;;;;;5071407;28;19923;-73
2023/01/27 00:27:02;;;;;;;;;;;18.20;44.80;;;;;;5072143;28;19923;-73
2023/01/27 00:29:27;;;;;;;;;;;18.20;44.90;;;;;;5070443;28;19913;-73
2023/01/27 00:34:38;;;;;;;;;;;18.20;44.90;;;;;;5065991;28;19919;-73
2023/01/27 00:37:03;;;;;;;;;;;18.10;45.00;;;;;;5066397;28;19947;-73
2023/01/27 00:39:29;;;;;;;;;;;18.10;45.00;;;;;;5070839;28;20364;-73
2023/01/27 00:41:54;;;;;;;;;;;18.10;44.90;;;;;;5071807;28;20021;-73
2023/01/27 00:44:20;;;;;;;;;;;18.10;45.00;;;;;;5065042;28;19913;-73
2023/01/27 00:46:45;;;;;;;;;;;18.00;44.90;;;;;;5070137;28;19923;-73
2023/01/27 00:49:12;;;;;;;;;;;18.10;45.00;;;;;;5070869;28;20265;-72
2023/01/27 00:51:37;;;;;;;;;;;18.00;45.60;;;;;;5076533;28;19916;-73
2023/01/27 00:54:03;;;;;;;;;;;18.00;44.90;;;;;;5072685;28;19935;-73
2023/01/27 00:56:29;;;;;;;;;;;18.00;44.90;;;;;;5070475;28;19948;-73
2023/01/27 00:58:54;;;;;;;;;;;18.00;45.00;;;;;;5071834;28;19964;-73
2023/01/27 01:01:20;;;;;;;;;;;18.00;45.00;;;;;;5072620;28;19917;-73
2023/01/27 01:03:45;;;;;;;;;;;18.00;45.10;;;;;;5073765;28;19912;-73
2023/01/27 01:06:11;;;;;;;;;;;18.00;45.00;;;;;;5072275;28;19924;-73
2023/01/27 01:08:37;;;;;;;;;;;18.00;45.10;;;;;;5070649;28;20406;-73
2023/01/27 01:11:03;;;;;;;;;;;17.90;45.10;;;;;;5072784;28;19913;-73
2023/01/27 01:13:29;;;;;;;;;;;17.90;45.10;;;;;;5071312;28;19912;-73
2023/01/27 01:15:54;;;;;;;;;;;17.90;45.10;;;;;;5066009;28;20291;-73
2023/01/27 01:18:20;;;;;;;;;;;17.90;45.10;;;;;;5057368;28;19969;-73
2023/01/27 01:20:46;;;;;;;;;;;17.90;45.20;;;;;;5065485;28;19916;-73
2023/01/27 01:23:11;;;;;;;;;;;17.80;45.10;;;;;;5073759;28;19912;-73
2023/01/27 01:25:37;;;;;;;;;;;17.80;45.20;;;;;;5068153;28;19925;-73
2023/01/27 01:28:04;;;;;;;;;;;17.80;45.20;;;;;;5070373;28;19934;-73
2023/01/27 01:30:30;;;;;;;;;;;17.80;45.20;;;;;;5070398;28;19927;-73
2023/01/27 01:32:56;;;;;;;;;;;17.70;45.20;;;;;;5056026;28;20385;-73
2023/01/27 01:35:21;;;;;;;;;;;17.80;45.20;;;;;;5071110;28;20455;-73
2023/01/27 01:37:46;;;;;;;;;;;17.70;45.10;;;;;;5069297;28;19916;-73
2023/01/27 01:40:12;;;;;;;;;;;17.70;45.20;;;;;;5069257;28;20406;-72
2023/01/27 01:42:57;;;;;;;;;;;17.70;45.10;;;;;;5064991;28;20410;-73
2023/01/27 01:45:26;;;;;;;;;;;17.70;45.20;;;;;;5052459;28;19916;-73
2023/01/27 01:47:51;;;;;;;;;;;17.70;45.20;;;;;;5068222;28;19913;-73
2023/01/27 01:50:17;;;;;;;;;;;17.70;45.20;;;;;;5071884;28;19917;-73
2023/01/27 01:52:42;;;;;;;;;;;17.60;45.10;;;;;;5070256;28;19966;-73
2023/01/27 01:55:08;;;;;;;;;;;17.60;45.20;;;;;;5070729;28;19918;-73
2023/01/27 01:57:36;;;;;;;;;;;17.60;45.20;;;;;;5070248;28;19974;-73
2023/01/27 02:00:08;;;;;;;;;;;17.60;45.20;;;;;;5070647;28;19913;-73
2023/01/27 02:02:33;;;;;;;;;;;17.60;45.80;;;;;;5070857;28;20418;-73
2023/01/27 02:05:00;;;;;;;;;;;17.60;45.20;;;;;;5069099;28;19921;-73
2023/01/27 02:07:32;;;;;;;;;;;17.60;45.30;;;;;;5069577;28;19924;-73
2023/01/27 02:09:57;;;;;;;;;;;17.50;45.30;;;;;;5072262;28;19912;-73
2023/01/27 02:12:23;;;;;;;;;;;17.60;45.20;;;;;;5065617;28;19913;-73
2023/01/27 02:14:48;;;;;;;;;;;17.60;45.10;;;;;;5072455;28;19912;-73
2023/01/27 02:17:14;;;;;;;;;;;17.60;45.70;;;;;;5067892;28;19912;-73
2023/01/27 02:19:58;;;;;;;;;;;17.60;44.90;;;;;;5059847;28;19913;-73
2023/01/27 02:22:31;;;;;;;;;;;17.70;44.90;;;;;;5065614;28;19977;-73
2023/01/27 02:24:59;;;;;;;;;;;17.80;44.80;;;;;;5067319;28;19927;-73
2023/01/27 02:27:24;;;;;;;;;;;17.90;44.50;;;;;;5069950;28;20003;-73
2023/01/27 02:29:49;;;;;;;;;;;18.10;44.50;;;;;;5070685;28;20391;-73
2023/01/27 02:32:24;;;;;;;;;;;18.30;44.10;;;;;;5069460;28;20269;-73
2023/01/27 02:34:50;;;;;;;;;;;18.40;43.70;;;;;;5069059;28;19913;-73
2023/01/27 02:37:15;;;;;;;;;;;18.40;44.10;;;;;;5070805;28;20380;-73
2023/01/27 02:39:41;;;;;;;;;;;18.30;44.10;;;;;;5071940;28;20303;-73
2023/01/27 02:42:07;;;;;;;;;;;18.30;44.10;;;;;;5064501;28;19912;-73
2023/01/27 02:44:32;;;;;;;;;;;18.30;43.70;;;;;;5072090;28;19920;-73
2023/01/27 02:46:58;;;;;;;;;;;18.20;43.70;;;;;;5069223;28;19923;-73
2023/01/27 02:49:23;;;;;;;;;;;18.20;43.70;;;;;;5063293;28;19970;-73
2023/01/27 02:51:48;;;;;;;;;;;18.30;43.70;;;;;;5066643;28;19955;-73
2023/01/27 02:54:14;;;;;;;;;;;18.30;43.60;;;;;;5064642;28;19916;-73
2023/01/27 02:56:39;;;;;;;;;;;18.40;43.60;;;;;;5070744;28;19958;-73
2023/01/27 02:59:05;;;;;;;;;;;18.40;43.60;;;;;;5070573;28;19919;-73
2023/01/27 03:01:31;;;;;;;;;;;18.40;43.40;;;;;;5070854;28;19962;-73
2023/01/27 03:03:57;;;;;;;;;;;18.50;43.40;;;;;;5070765;28;19948;-73
2023/01/27 03:06:22;;;;;;;;;;;18.50;43.20;;;;;;5071272;28;19963;-73
2023/01/27 03:08:48;;;;;;;;;;;18.60;43.30;;;;;;5071917;28;19912;-73
2023/01/27 03:11:13;;;;;;;;;;;18.60;43.30;;;;;;5067766;28;19917;-73
2023/01/27 03:13:39;;;;;;;;;;;18.60;43.20;;;;;;5068965;28;19913;-73
2023/01/27 03:18:48;;;;;;;;;;;18.70;43.30;;;;;;5069850;28;19962;-73
2023/01/27 03:21:14;;;;;;;;;;;18.60;43.20;;;;;;5068451;28;19912;-73
2023/01/27 03:23:40;;;;;;;;;;;18.60;43.10;;;;;;5068848;28;20280;-73
2023/01/27 03:26:05;;;;;;;;;;;18.70;43.20;;;;;;5050511;28;19924;-73
2023/01/27 03:28:31;;;;;;;;;;;18.60;43.10;;;;;;5066045;28;19970;-72
2023/01/27 03:31:00;;;;;;;;;;;18.60;43.10;;;;;;5069680;28;20027;-71
2023/01/27 03:33:25;;;;;;;;;;;18.60;43.20;;;;;;5065536;28;19917;-73
2023/01/27 03:46:48;;;;;;;;;;;18.40;43.20;;;;;;5057347;28;19939;-73
2023/01/27 03:49:13;;;;;;;;;;;18.40;43.30;;;;;;5065945;28;20372;-73
2023/01/27 03:51:39;;;;;;;;;;;18.30;43.30;;;;;;5067814;28;20299;-73
2023/01/27 03:54:04;;;;;;;;;;;18.30;43.50;;;;;;5062641;28;19913;-73
2023/01/27 03:56:29;;;;;;;;;;;18.30;43.50;;;;;;5063281;28;19935;-73
2023/01/27 03:58:55;;;;;;;;;;;18.30;43.50;;;;;;5064958;28;20442;-73
2023/01/27 04:01:21;;;;;;;;;;;18.30;43.40;;;;;;5073072;28;20292;-73
2023/01/27 04:09:20;;;;;;;;;;;18.30;43.60;;;;;;5065063;28;19969;-73
2023/01/27 04:11:54;;;;;;;;;;;18.30;43.60;;;;;;5069711;28;19958;-73
2023/01/27 04:14:21;;;;;;;;;;;18.20;43.60;;;;;;5065650;28;20005;-73
2023/01/27 04:16:46;;;;;;;;;;;18.20;43.70;;;;;;5072305;28;19927;-73
2023/01/27 04:19:12;;;;;;;;;;;18.20;43.60;;;;;;5073534;28;19912;-71
2023/01/27 04:21:37;;;;;;;;;;;18.20;43.60;;;;;;5052622;28;19917;-73
2023/01/27 04:24:03;;;;;;;;;;;18.20;43.60;;;;;;5063947;28;19962;-73
2023/01/27 04:26:32;;;;;;;;;;;18.20;43.70;;;;;;5069900;28;19916;-73
2023/01/27 04:28:58;;;;;;;;;;;18.20;43.70;;;;;;5071754;28;20414;-73
2023/01/27 04:31:23;;;;;;;;;;;18.20;43.70;;;;;;5073249;28;19919;-73
2023/01/27 04:33:49;;;;;;;;;;;18.20;43.60;;;;;;5071665;28;19999;-73
2023/01/27 04:36:15;;;;;;;;;;;18.20;43.60;;;;;;5072010;28;20003;-73
2023/01/27 04:38:40;;;;;;;;;;;18.20;43.50;;;;;;5069624;28;19912;-73
2023/01/27 04:41:06;;;;;;;;;;;18.30;43.50;;;;;;5071001;28;20375;-73
2023/01/27 04:43:31;;;;;;;;;;;18.20;43.40;;;;;;5074434;28;20288;-73
2023/01/27 04:45:56;;;;;;;;;;;18.20;43.40;;;;;;5071822;28;20277;-73
2023/01/27 04:48:22;;;;;;;;;;;18.30;43.50;;;;;;5068825;28;20265;-73
2023/01/27 04:50:47;;;;;;;;;;;18.20;43.50;;;;;;5072202;28;20314;-73
2023/01/27 04:53:13;;;;;;;;;;;18.30;43.50;;;;;;5072029;28;20376;-73
2023/01/27 04:55:38;;;;;;;;;;;18.20;43.50;;;;;;5071772;28;20311;-73
2023/01/27 04:58:04;;;;;;;;;;;18.30;43.50;;;;;;5071211;28;20300;-73
2023/01/27 05:00:30;;;;;;;;;;;18.20;43.40;;;;;;5070701;28;19920;-72
2023/01/27 05:02:55;;;;;;;;;;;18.20;43.40;;;;;;5066421;28;19923;-73
2023/01/27 05:05:21;;;;;;;;;;;18.20;43.60;;;;;;5073493;28;19916;-73
2023/01/27 05:07:46;;;;;;;;;;;18.20;43.50;;;;;;5073777;28;19928;-73
2023/01/27 05:10:11;;;;;;;;;;;18.20;43.50;;;;;;5070824;28;19956;-73
2023/01/27 05:12:37;;;;;;;;;;;18.10;43.60;;;;;;5071299;28;19966;-73
2023/01/27 05:15:03;;;;;;;;;;;18.20;43.50;;;;;;5072967;28;19912;-73
2023/01/27 05:17:31;;;;;;;;;;;18.10;43.70;;;;;;5070730;28;19980;-73
2023/01/27 05:19:57;;;;;;;;;;;18.10;43.70;;;;;;5071812;28;19923;-73
2023/01/27 05:22:22;;;;;;;;;;;18.10;43.60;;;;;;5071520;28;20284;-73
2023/01/27 05:24:47;;;;;;;;;;;18.10;43.70;;;;;;5072283;28;19919;-73
2023/01/27 05:27:13;;;;;;;;;;;18.10;43.50;;;;;;5072973;28;19995;-73
2023/01/27 05:29:38;;;;;;;;;;;18.10;43.70;;;;;;5071559;28;19947;-73
2023/01/27 05:32:04;;;;;;;;;;;18.10;43.70;;;;;;5070319;28;19912;-73
2023/01/27 05:34:29;;;;;;;;;;;18.00;43.60;;;;;;5069455;28;19948;-73
2023/01/27 05:36:55;;;;;;;;;;;18.10;43.60;;;;;;5070218;28;19939;-73
2023/01/27 05:39:20;;;;;;;;;;;18.10;43.70;;;;;;5069245;28;19986;-73
2023/01/27 05:41:46;;;;;;;;;;;18.10;43.60;;;;;;5070937;28;20043;-72
2023/01/27 05:44:11;;;;;;;;;;;18.10;43.70;;;;;;5070194;28;19917;-73
2023/01/27 05:46:37;;;;;;;;;;;18.00;43.60;;;;;;5055406;28;19916;-73
2023/01/27 05:49:04;;;;;;;;;;;18.00;43.60;;;;;;5053642;28;19938;-73
2023/01/27 05:51:30;;;;;;;;;;;18.00;43.60;;;;;;5068227;28;19980;-73
2023/01/27 05:53:56;;;;;;;;;;;18.00;43.50;;;;;;5068600;28;19946;-71
2023/01/27 05:56:21;;;;;;;;;;;18.10;43.60;;;;;;5070250;28;19923;-73
2023/01/27 05:58:47;;;;;;;;;;;18.00;43.50;;;;;;5067209;28;19916;-73
2023/01/27 06:01:19;;;;;;;;;;;18.00;43.50;;;;;;5068317;28;19912;-73
2023/01/27 06:03:45;;;;;;;;;;;18.00;43.50;;;;;;5066977;28;19916;-73
2023/01/27 06:06:10;;;;;;;;;;;18.00;43.50;;;;;;5069748;28;20011;-73
2023/01/27 06:08:38;;;;;;;;;;;18.00;43.60;;;;;;5072666;28;20042;-73
2023/01/27 06:11:04;;;;;;;;;;;18.00;43.50;;;;;;5070530;28;20303;-73
2023/01/27 06:13:29;;;;;;;;;;;18.00;43.60;;;;;;5068865;28;19927;-73
2023/01/27 06:15:55;;;;;;;;;;;18.00;43.50;;;;;;5070434;28;20472;-73
2023/01/27 06:18:20;;;;;;;;;;;18.00;43.50;;;;;;5072021;28;19944;-73
2023/01/27 06:20:45;;;;;;;;;;;18.00;43.60;;;;;;5069070;28;19990;-73
2023/01/27 06:23:11;;;;;;;;;;;17.90;43.50;;;;;;5053873;28;20020;-73
2023/01/27 06:25:37;;;;;;;;;;;17.90;43.50;;;;;;5058963;28;19967;-73
2023/01/27 06:28:03;;;;;;;;;;;18.00;43.50;;;;;;5071025;28;20010;-73
2023/01/27 06:30:28;;;;;;;;;;;18.00;43.50;;;;;;5070355;28;20003;-73
2023/01/27 06:32:54;;;;;;;;;;;18.00;43.50;;;;;;5069728;28;19913;-73
2023/01/27 06:35:19;;;;;;;;;;;18.00;43.50;;;;;;5068147;28;20356;-72
2023/01/27 06:37:45;;;;;;;;;;;18.00;43.40;;;;;;5068349;28;19928;-73
2023/01/27 06:40:11;;;;;;;;;;;18.00;43.50;;;;;;5070341;28;19935;-73
2023/01/27 06:42:36;;;;;;;;;;;18.00;43.50;;;;;;5070131;28;19917;-72
2023/01/27 06:45:02;;;;;;;;;;;17.90;43.40;;;;;;5069420;28;20103;-73
2023/01/27 06:47:27;;;;;;;;;;;17.90;43.50;;;;;;5067311;28;19920;-73
2023/01/27 06:49:52;;;;;;;;;;;17.90;43.40;;;;;;5067983;28;19919;-73
2023/01/27 06:52:18;;;;;;;;;;;17.90;43.40;;;;;;5067788;28;19909;-73
2023/01/27 06:54:43;;;;;;;;;;;17.90;43.30;;;;;;5069619;28;19913;-73
2023/01/27 06:57:09;;;;;;;;;;;17.90;43.50;;;;;;5070457;28;19908;-73
2023/01/27 06:59:34;;;;;;;;;;;17.90;43.40;;;;;;5071280;28;19912;-73
2023/01/27 07:02:00;;;;;;;;;;;17.90;43.50;;;;;;5067220;28;20007;-73
2023/01/27 07:04:25;;;;;;;;;;;17.90;43.60;;;;;;5069515;28;19996;-73
2023/01/27 07:06:51;;;;;;;;;;;17.90;43.50;;;;;;5069402;28;20011;-71
2023/01/27 07:09:16;;;;;;;;;;;17.90;43.40;;;;;;5070034;28;19912;-72
2023/01/27 07:11:41;;;;;;;;;;;17.90;43.40;;;;;;5069699;28;19916;-73
2023/01/27 07:14:07;;;;;;;;;;;17.90;43.50;;;;;;5066835;28;19928;-73
2023/01/27 07:16:32;;;;;;;;;;;17.90;43.50;;;;;;5070117;28;20288;-73
2023/01/27 07:18:58;;;;;;;;;;;17.90;43.50;;;;;;5065399;28;20284;-73
2023/01/27 07:21:23;;;;;;;;;;;17.90;43.50;;;;;;5069471;28;20291;-73
2023/01/27 07:23:49;;;;;;;;;;;18.00;43.50;;;;;;5070578;28;19946;-73
2023/01/27 07:26:14;;;;;;;;;;;17.90;43.30;;;;;;5067273;28;19950;-73
2023/01/27 07:28:40;;;;;;;;;;;17.90;43.30;;;;;;5060198;28;20003;-73
2023/01/27 07:31:05;;;;;;;;;;;17.90;43.40;;;;;;5066382;28;19954;-73
2023/01/27 07:33:31;;;;;;;;;;;17.90;43.40;;;;;;5065378;28;20456;-73
2023/01/27 07:35:56;;;;;;;;;;;17.90;43.50;;;;;;5064829;28;20399;-73
2023/01/27 07:38:22;;;;;;;;;;;17.90;43.50;;;;;;5074180;28;20427;-73
2023/01/27 07:40:47;;;;;;;;;;;17.90;43.50;;;;;;5051465;28;19913;-73
2023/01/27 07:43:12;;;;;;;;;;;17.80;43.40;;;;;;5066315;28;19912;-73
2023/01/27 07:45:38;;;;;;;;;;;17.90;43.50;;;;;;5073771;28;20364;-73
2023/01/27 07:48:04;;;;;;;;;;;17.90;43.60;;;;;;5070334;28;19908;-73
2023/01/27 07:50:30;;;;;;;;;;;17.80;43.50;;;;;;5073376;28;20376;-73
2023/01/27 07:52:59;;;;;;;;;;;17.80;43.50;;;;;;5070034;28;20172;-73
2023/01/27 07:55:25;;;;;;;;;;;17.90;43.60;;;;;;5075802;28;19920;-73
2023/01/27 07:57:52;;;;;;;;;;;17.90;43.50;;;;;;5072405;28;19913;-73
2023/01/27 08:00:20;;;;;;;;;;;17.90;43.50;;;;;;5067967;28;19920;-73
2023/01/27 08:02:52;;;;;;;;;;;17.90;43.50;;;;;;5067949;28;19920;-73
2023/01/27 08:05:19;;;;;;;;;;;17.90;43.50;;;;;;5072885;28;20002;-73
2023/01/27 08:07:44;;;;;;;;;;;17.90;43.50;;;;;;5049381;28;19924;-73
2023/01/27 08:10:10;;;;;;;;;;;17.90;43.60;;;;;;5069123;28;19986;-73
2023/01/27 08:12:35;;;;;;;;;;;17.90;43.50;;;;;;5069706;28;20014;-73
2023/01/27 08:15:01;;;;;;;;;;;17.90;43.70;;;;;;5074021;28;20073;-73
2023/01/27 08:17:26;;;;;;;;;;;17.90;43.70;;;;;;5074524;28;19920;-72
2023/01/27 08:19:52;;;;;;;;;;;18.00;43.50;;;;;;5064843;28;19989;-72
2023/01/27 08:22:19;;;;;;;;;;;18.60;43.20;;;;;;5069737;28;19916;-73
2023/01/27 08:24:45;;;;;;;;;;;19.50;41.50;;;;;;5072346;28;20268;-73
2023/01/27 08:27:10;;;;;;;;;;;20.50;40.20;;;;;;5067395;28;20310;-73
2023/01/27 08:29:36;;;;;;;;;;;21.20;38.70;;;;;;5067715;28;19920;-73
2023/01/27 08:32:01;;;;;;;;;;;21.90;37.40;;;;;;5071066;28;19918;-73
2023/01/27 08:34:27;;;;;;;;;;;22.40;36.60;;;;;;5074703;28;19995;-73
2023/01/27 08:36:52;;;;;;;;;;;22.70;36.10;;;;;;5071424;28;19920;-73
2023/01/27 08:39:18;;;;;;;;;;;22.90;35.90;;;;;;5073739;28;19916;-73
2023/01/27 08:41:43;;;;;;;;;;;23.00;35.80;;;;;;5064371;28;19945;-73
2023/01/27 08:44:09;;;;;;;;;;;23.10;35.70;;;;;;5069159;28;19912;-73
2023/01/27 08:46:34;;;;;;;;;;;23.20;35.80;;;;;;5071999;28;19938;-73
2023/01/27 08:49:00;;;;;;;;;;;23.20;35.60;;;;;;5073504;28;20042;-72
2023/01/27 08:51:25;;;;;;;;;;;23.40;35.30;;;;;;5066431;28;19916;-73
2023/01/27 08:53:50;;;;;;;;;;;23.40;35.40;;;;;;5073199;28;19912;-72
2023/01/27 08:56:16;;;;;;;;;;;23.40;35.40;;;;;;5072276;28;20018;-73
2023/01/27 08:58:41;;;;;;;;;;;23.50;35.40;;;;;;5065811;28;19923;-73
2023/01/27 09:01:07;;;;;;;;;;;23.50;35.30;;;;;;5067721;28;19938;-72
2023/01/27 09:03:33;;;;;;;;;;;23.60;35.50;;;;;;5069503;28;20322;-73
2023/01/27 09:05:58;;;;;;;;;;;23.60;35.40;;;;;;5071847;28;19935;-73
2023/01/27 09:08:24;;;;;;;;;;;23.60;35.40;;;;;;5073124;28;20356;-72
2023/01/27 09:10:49;;;;;;;;;;;23.70;35.30;;;;;;5071565;28;19912;-73
2023/01/27 09:13:15;;;;;;;;;;;23.70;35.20;;;;;;5064803;28;20327;-73
2023/01/27 09:15:42;;;;;;;;;;;23.70;35.40;;;;;;5060237;28;19912;-73
2023/01/27 09:18:08;;;;;;;;;;;23.70;35.30;;;;;;5070904;28;20053;-73
2023/01/27 09:20:35;;;;;;;;;;;23.80;35.40;;;;;;5068007;28;19966;-73
2023/01/27 09:23:01;;;;;;;;;;;23.80;35.40;;;;;;5070310;28;20369;-73
2023/01/27 09:25:26;;;;;;;;;;;23.80;35.60;;;;;;5072503;28;19931;-72
2023/01/27 09:27:55;;;;;;;;;;;23.80;35.60;;;;;;5071321;28;19927;-73
2023/01/27 09:30:21;;;;;;;;;;;23.80;35.60;;;;;;5072879;28;20403;-72
2023/01/27 09:32:46;;;;;;;;;;;23.80;35.60;;;;;;5072109;28;19920;-73
2023/01/27 09:35:12;;;;;;;;;;;23.90;35.70;;;;;;5070135;28;19942;-72
2023/01/27 09:37:42;;;;;;;;;;;24.00;35.60;;;;;;5070171;28;20376;-72
2023/01/27 09:40:23;;;;;;;;;;;24.00;35.60;;;;;;5072011;28;20380;-72
2023/01/27 09:42:55;;;;;;;;;;;24.10;35.60;;;;;;5051824;28;19913;-71
2023/01/27 09:45:28;;;;;;;;;;;24.00;35.50;;;;;;5067933;28;20307;-73
2023/01/27 09:48:01;;;;;;;;;;;24.10;35.60;;;;;;5073150;28;20272;-73
2023/01/27 09:50:30;;;;;;;;;;;24.10;35.50;;;;;;5066679;28;19920;-72
2023/01/27 09:52:58;;;;;;;;;;;24.10;35.70;;;;;;5072224;28;20284;-73
2023/01/27 09:55:31;;;;;;;;;;;24.20;35.60;;;;;;5073106;28;19944;-72
2023/01/27 09:58:04;;;;;;;;;;;24.20;35.70;;;;;;5067038;28;19917;-72
2023/01/27 10:01:02;;;;;;;;;;;24.20;35.70;;;;;;5067238;28;19912;-73
2023/01/27 10:03:54;;;;;;;;;;;24.20;35.60;;;;;;5034405;28;20007;-71
2023/01/27 10:06:24;;;;;;;;;;;24.30;35.80;;;;;;5044756;28;20335;-73
2023/01/27 10:09:06;;;;;;;;;;;24.30;35.80;;;;;;5065865;28;19942;-72
2023/01/27 10:11:35;;;;;;;;;;;24.30;35.80;;;;;;5065807;28;19915;-72
2023/01/27 10:14:15;;;;;;;;;;;24.30;35.60;;;;;;5057888;28;19919;-72
2023/01/27 10:16:45;;;;;;;;;;;24.30;36.50;;;;;;5064963;28;19916;-72
2023/01/27 10:19:18;;;;;;;;;;;24.40;35.80;;;;;;5067858;28;19913;-72
2023/01/27 10:22:06;;;;;;;;;;;24.40;35.70;;;;;;5072391;28;19908;-72
2023/01/27 10:24:35;;;;;;;;;;;24.50;35.70;;;;;;5071419;28;19959;-72
2023/01/27 10:27:03;;;;;;;;;;;24.50;35.80;;;;;;5065838;28;19912;-72
2023/01/27 10:29:33;;;;;;;;;;;24.50;35.70;;;;;;5068852;28;21182;-73
2023/01/27 10:32:10;;;;;;;;;;;24.50;35.80;;;;;;5071022;28;20272;-73
2023/01/27 10:34:36;;;;;;;;;;;24.50;36.10;;;;;;5066277;28;19917;-73
2023/01/27 10:37:11;;;;;;;;;;;24.50;36.00;;;;;;5071255;28;19920;-73
2023/01/27 10:39:42;;;;;;;;;;;24.50;36.20;;;;;;5072166;28;20414;-73
2023/01/27 10:42:10;;;;;;;;;;;24.50;36.20;;;;;;5075734;28;19912;-73
2023/01/27 10:44:40;;;;;;;;;;;24.50;36.30;;;;;;5064899;28;19916;-73
2023/01/27 10:47:24;;;;;;;;;;;24.50;36.20;;;;;;5071801;28;19955;-73
2023/01/27 10:49:50;;;;;;;;;;;24.50;36.40;;;;;;5072755;28;19970;-73
2023/01/27 10:52:18;;;;;;;;;;;24.50;36.50;;;;;;5070262;28;19919;-72
2023/01/27 10:54:54;;;;;;;;;;;24.50;36.50;;;;;;5071010;28;19913;-73
2023/01/27 10:57:21;;;;;;;;;;;24.50;36.50;;;;;;5053858;28;20082;-73
2023/01/27 10:59:59;;;;;;;;;;;24.50;36.70;;;;;;5071279;28;19916;-73
2023/01/27 11:02:47;;;;;;;;;;;24.60;36.80;;;;;;5072556;28;19919;-74
2023/01/27 11:05:21;;;;;;;;;;;24.60;37.70;;;;;;5059834;28;20376;-73
2023/01/27 11:07:51;;;;;;;;;;;24.50;36.80;;;;;;5071184;28;20030;-74
2023/01/27 11:10:17;;;;;;;;;;;24.50;37.20;;;;;;5070688;28;19986;-74
2023/01/27 11:12:44;;;;;;;;;;;24.40;37.10;;;;;;5072664;28;19913;-74
2023/01/27 11:15:15;;;;;;;;;;;24.20;37.70;;;;;;5074411;28;19912;-74
2023/01/27 11:17:42;;;;;;;;;;;24.00;38.10;;;;;;5061973;28;19996;-74
2023/01/27 11:20:10;;;;;;;;;;;23.90;38.30;;;;;;5074879;28;20327;-73
2023/01/27 11:22:36;;;;;;;;;;;23.90;39.20;;;;;;5075830;28;20062;-74
2023/01/27 11:25:05;;;;;;;;;;;23.80;38.40;;;;;;5073551;28;20369;-74
2023/01/27 11:27:36;;;;;;;;;;;23.80;38.80;;;;;;5072703;28;20062;-74
2023/01/27 11:30:06;;;;;;;;;;;23.70;38.90;;;;;;5072911;28;19921;-74
2023/01/27 11:32:50;;;;;;;;;;;23.70;39.00;;;;;;5074664;28;19963;-74
2023/01/27 11:35:16;;;;;;;;;;;23.60;39.20;;;;;;5075424;28;19919;-74
2023/01/27 11:37:42;;;;;;;;;;;23.50;39.30;;;;;;5073921;28;19916;-73
2023/01/27 11:40:15;;;;;;;;;;;23.50;39.40;;;;;;5070079;28;20166;-73
2023/01/27 11:42:41;;;;;;;;;;;23.60;39.60;;;;;;5076597;28;19943;-73
2023/01/27 11:45:10;;;;;;;;;;;23.60;39.50;;;;;;5075680;28;20364;-73
2023/01/27 11:47:36;;;;;;;;;;;23.60;39.50;;;;;;5074980;28;20000;-74
2023/01/27 11:50:03;;;;;;;;;;;23.50;40.10;;;;;;5073831;28;19983;-73
2023/01/27 11:52:28;;;;;;;;;;;23.60;39.50;;;;;;5057715;28;20398;-71
2023/01/27 11:54:54;;;;;;;;;;;23.60;39.50;;;;;;5074025;28;19913;-72
2023/01/27 11:57:21;;;;;;;;;;;23.70;39.40;;;;;;5075766;28;19958;-73
2023/01/27 11:59:47;;;;;;;;;;;23.70;39.50;;;;;;5074837;28;20020;-73
2023/01/27 12:02:17;;;;;;;;;;;23.70;39.50;;;;;;5075731;28;19912;-72
2023/01/27 12:04:50;;;;;;;;;;;23.70;39.80;;;;;;5056911;28;19920;-73
2023/01/27 12:07:22;;;;;;;;;;;23.60;39.90;;;;;;5074402;28;19924;-73
2023/01/27 12:09:47;;;;;;;;;;;23.60;39.80;;;;;;5075119;28;19920;-73
2023/01/27 12:12:13;;;;;;;;;;;23.60;40.00;;;;;;5074485;28;19915;-74
2023/01/27 12:14:48;;;;;;;;;;;23.70;39.80;;;;;;5072862;28;19912;-73
2023/01/27 12:17:14;;;;;;;;;;;23.60;40.00;;;;;;5068984;28;19912;-73
2023/01/27 12:19:39;;;;;;;;;;;23.70;40.30;;;;;;5065340;28;20007;-73
2023/01/27 12:22:17;;;;;;;;;;;24.00;39.90;;;;;;5070189;28;20003;-73
2023/01/27 12:24:46;;;;;;;;;;;24.20;39.50;;;;;;5050460;28;20407;-73
2023/01/27 12:27:38;;;;;;;;;;;24.30;39.20;;;;;;5060659;28;19923;-73
2023/01/27 12:30:04;;;;;;;;;;;24.40;39.30;;;;;;5063666;28;19917;-73
2023/01/27 12:32:36;;;;;;;;;;;24.40;39.30;;;;;;5064218;28;19919;-73
2023/01/27 12:35:01;;;;;;;;;;;24.40;39.30;;;;;;5071164;28;19916;-73
2023/01/27 12:37:31;;;;;;;;;;;24.50;39.30;;;;;;5061899;28;19923;-73
2023/01/27 12:39:59;;;;;;;;;;;24.50;39.70;;;;;;5071563;28;19916;-73
2023/01/27 12:42:35;;;;;;;;;;;24.60;39.10;;;;;;5071451;28;19921;-73
2023/01/27 12:45:14;;;;;;;;;;;24.70;38.90;;;;;;5067150;28;19970;-73
2023/01/27 12:47:39;;;;;;;;;;;24.70;38.80;;;;;;5071008;28;19959;-73
2023/01/27 12:50:24;;;;;;;;;;;24.70;38.70;;;;;;5071127;28;19912;-73
2023/01/27 12:53:05;;;;;;;;;;;24.80;38.60;;;;;;5084501;28;19913;-73
2023/01/27 12:55:32;;;;;;;;;;;24.80;38.60;;;;;;5071971;28;19912;-73
2023/01/27 12:57:57;;;;;;;;;;;24.80;38.70;;;;;;5068708;28;19923;-73
2023/01/27 13:00:24;;;;;;;;;;;24.80;38.70;;;;;;5066009;28;20292;-73
2023/01/27 13:02:50;;;;;;;;;;;24.80;38.70;;;;;;5074146;28;19915;-73
2023/01/27 13:05:16;;;;;;;;;;;24.90;38.80;;;;;;5067628;28;19922;-73
2023/01/27 13:07:51;;;;;;;;;;;24.90;38.80;;;;;;5072591;28;19924;-73
2023/01/27 13:10:20;;;;;;;;;;;25.00;39.00;;;;;;5068281;28;20439;-72
2023/01/27 13:12:48;;;;;;;;;;;25.00;39.00;;;;;;5065164;28;19920;-73
2023/01/27 13:15:15;;;;;;;;;;;25.10;39.10;;;;;;5060226;28;20007;-73
2023/01/27 13:17:41;;;;;;;;;;;25.10;39.20;;;;;;5070480;28;19912;-73
2023/01/27 13:20:25;;;;;;;;;;;25.10;39.50;;;;;;5055703;28;19919;-73
2023/01/27 13:22:52;;;;;;;;;;;25.10;39.60;;;;;;5071842;28;19952;-73
2023/01/27 13:25:19;;;;;;;;;;;25.10;39.80;;;;;;5068438;28;19920;-73
2023/01/27 13:27:45;;;;;;;;;;;25.10;39.80;;;;;;5070428;28;20383;-73
2023/01/27 13:30:26;;;;;;;;;;;25.10;39.80;;;;;;5070390;28;20007;-73
2023/01/27 13:32:52;;;;;;;;;;;25.10;39.70;;;;;;5068527;28;19920;-72
2023/01/27 13:35:44;;;;;;;;;;;25.00;39.90;;;;;;5069111;28;19913;-73
2023/01/27 13:38:22;;;;;;;;;;;25.00;40.10;;;;;;5065470;28;19913;-72
2023/01/27 13:40:48;;;;;;;;;;;25.10;40.00;;;;;;5067577;28;19919;-72
2023/01/27 13:43:22;;;;;;;;;;;25.10;39.80;;;;;;5068843;28;20327;-73
2023/01/27 13:45:52;;;;;;;;;;;25.10;39.70;;;;;;5074429;28;20011;-73
2023/01/27 13:48:19;;;;;;;;;;;25.10;40.00;;;;;;5047641;28;19939;-73
2023/01/27 13:50:49;;;;;;;;;;;25.10;40.00;;;;;;5061872;28;20427;-73
2023/01/27 13:53:15;;;;;;;;;;;25.10;40.10;;;;;;5071917;28;19919;-73
2023/01/27 13:55:55;;;;;;;;;;;25.10;40.20;;;;;;5067091;28;19913;-73
2023/01/27 13:58:27;;;;;;;;;;;25.10;40.10;;;;;;5067762;28;19912;-73
2023/01/27 14:00:57;;;;;;;;;;;25.10;40.10;;;;;;5068537;28;19962;-74
2023/01/27 14:03:38;;;;;;;;;;;25.10;40.10;;;;;;5067058;28;19920;-74
2023/01/27 14:06:19;;;;;;;;;;;25.10;39.90;;;;;;5071844;28;20407;-73
2023/01/27 14:09:03;;;;;;;;;;;25.20;39.90;;;;;;5067602;28;19920;-73
2023/01/27 14:11:38;;;;;;;;;;;25.20;39.90;;;;;;5072535;28;19909;-73
2023/01/27 14:14:22;;;;;;;;;;;25.30;39.90;;;;;;5050681;28;19974;-73
2023/01/27 14:16:59;;;;;;;;;;;25.30;40.00;;;;;;5065762;28;20417;-73
2023/01/27 14:19:34;;;;;;;;;;;25.30;39.90;;;;;;5071447;28;19913;-73
2023/01/27 14:22:02;;;;;;;;;;;25.30;40.00;;;;;;5073042;28;20430;-73
2023/01/27 14:24:53;;;;;;;;;;;25.30;39.90;;;;;;5071338;28;19921;-73
2023/01/27 14:27:29;;;;;;;;;;;25.30;40.00;;;;;;5035890;28;20003;-73
2023/01/27 14:29:58;;;;;;;;;;;25.40;40.00;;;;;;5051614;28;20151;-74
2023/01/27 14:32:29;;;;;;;;;;;25.40;40.10;;;;;;5052748;28;19909;-73
2023/01/27 14:35:08;;;;;;;;;;;25.40;40.10;;;;;;5070759;28;19916;-73
2023/01/27 14:37:41;;;;;;;;;;;25.40;40.10;;;;;;5072636;28;19918;-73
2023/01/27 14:40:17;;;;;;;;;;;25.30;40.10;;;;;;5071991;28;20343;-73
2023/01/27 14:43:01;;;;;;;;;;;25.40;40.10;;;;;;5067221;28;20405;-73
2023/01/27 14:45:26;;;;;;;;;;;25.30;40.20;;;;;;5072076;28;20392;-73
2023/01/27 14:47:52;;;;;;;;;;;25.30;40.00;;;;;;5071318;28;19908;-73
2023/01/27 14:50:37;;;;;;;;;;;25.30;40.20;;;;;;5071673;28;20003;-73